Impacts TAF Board INFO
FOR SITUATIONAL AWARENESS. NOT TO BE USED FOR FLIGHT PLANNING PURPOSES.
IDs:

KHDC - Hammond/Northshore R, LA, US

Issued at 0526 UTC 23 Feb 2018
Updated at 0829 UTC 23 Feb 2018
Potential Impact None Slight Moderate High
Time<<23/21Z 23/22Z 23/23Z 24/00Z 24/01Z 24/02Z 24/03Z 24/04Z 24/05Z 24/06Z 24/07Z 24/08Z 24/09Z>>
Type PRVL
  [PRB30]  
PRVL
  [PRB30]  
PRVL
  [PRB30]  
PRVL PRVL PRVL PRVL PRVL PRVL
VIS >6
  [2]  
>6
  [2]  
>6
  [2]  
>6 >6 >6 >6 >6 >6
CIG 35
  [20]  
35
  [20]  
35
  [20]  
50 50 50 50 50 50
Cover BKN
  [OVC]  
BKN
  [OVC]  
BKN
  [OVC]  
BKN BKN BKN BKN BKN BKN
FltCat VFR
  [IFR]  
VFR
  [IFR]  
VFR
  [IFR]  
VFR VFR VFR VFR VFR VFR
WX --
  [-TSRA BR]  
--
  [-TSRA BR]  
--
  [-TSRA BR]  
-- -- -- -- -- --
WDir 130
[130]
130
[130]
130
[130]
130 130 130 130 130 130
WSpd 9
  [9]  
9
  [9]  
9
  [9]  
7 7 7 7 7 7
WGst --
  [--]  
--
  [--]  
--
  [--]  
-- -- -- -- -- --

Raw TAF
KHDC 230526Z 2306/2406 13009KT P6SM BKN009
  FM230900 13004KT 5SM BR BKN008
  TEMPO 2310/2314 2SM BR
  FM231530 13005KT P6SM BKN020
  FM231800 13009KT P6SM SCT025 BKN035
  PROB30 2318/2324 2SM -TSRA BR OVC020CB
  FM240000 13007KT P6SM SCT025 BKN050


METAR Board
Radar Display
Forecast Discussion

FOR SITUATIONAL AWARENESS. NOT TO BE USED FOR FLIGHT PLANNING PURPOSES.